createdAt,value
2017-07-15T00:01:02.806Z,93.8
2017-07-15T00:02:10.283Z,93.6
2017-07-15T00:03:17.763Z,93.6
2017-07-15T00:04:25.541Z,92.8
2017-07-15T00:05:33.018Z,93.6
2017-07-15T00:06:40.493Z,93.5
2017-07-15T00:07:47.969Z,92.9
2017-07-15T00:08:55.444Z,93.1
2017-07-15T00:10:03.215Z,93.1
2017-07-15T00:11:10.896Z,93.2
2017-07-15T00:12:18.367Z,92.9
2017-07-15T00:13:25.840Z,93.8
2017-07-15T00:14:33.328Z,93.1
2017-07-15T00:15:41.116Z,92.9
2017-07-15T00:16:48.595Z,93.1
2017-07-15T00:17:56.071Z,93.6
2017-07-15T00:19:03.565Z,93.4
2017-07-15T00:20:11.045Z,93.6
2017-07-15T00:21:18.819Z,93.1
2017-07-15T00:22:26.294Z,93.3
2017-07-15T00:23:33.770Z,93.2
2017-07-15T00:24:40.912Z,93.7
2017-07-15T00:25:48.397Z,93.1
2017-07-15T00:26:56.175Z,93.4
2017-07-15T00:28:03.646Z,92.9
2017-07-15T00:29:11.122Z,93.7
2017-07-15T00:30:18.592Z,93.4
2017-07-15T00:31:26.070Z,93
2017-07-15T00:32:33.521Z,92.9
2017-07-15T00:33:40.991Z,93.3
2017-07-15T00:34:48.470Z,93
2017-07-15T00:35:55.947Z,92.7
2017-07-15T00:37:03.426Z,92.4
2017-07-15T00:38:11.206Z,93.6
2017-07-15T00:39:18.684Z,93.5
2017-07-15T00:40:26.161Z,94
2017-07-15T00:41:33.637Z,93.8
2017-07-15T00:42:41.110Z,93.8
2017-07-15T00:43:48.557Z,92.9
2017-07-15T00:44:56.035Z,93.4
2017-07-15T00:46:03.512Z,93.2
2017-07-15T00:47:10.987Z,93
2017-07-15T00:48:18.466Z,93.1
2017-07-15T00:49:25.903Z,92.9
2017-07-15T00:50:33.386Z,92.7
2017-07-15T00:51:40.854Z,92.2
2017-07-15T00:52:48.332Z,92.9
2017-07-15T00:53:55.843Z,93
2017-07-15T00:55:03.615Z,93.4
2017-07-15T00:56:11.091Z,93.4
2017-07-15T00:57:18.568Z,94
2017-07-15T00:58:26.243Z,94
2017-07-15T00:59:33.719Z,93.9
2017-07-15T01:00:41.499Z,94.1
2017-07-15T01:01:48.976Z,94.3
2017-07-15T01:02:56.453Z,93.8
2017-07-15T01:04:03.933Z,93.6
2017-07-15T01:05:11.067Z,94.1
2017-07-15T01:06:18.838Z,94
2017-07-15T01:07:25.987Z,94.1
2017-07-15T01:08:33.457Z,93.5
2017-07-15T01:09:40.930Z,93.8
2017-07-15T01:10:48.406Z,93.6
2017-07-15T01:11:56.074Z,93.8
2017-07-15T01:13:03.546Z,93.7
2017-07-15T01:14:10.018Z,93.8
2017-07-15T01:15:17.510Z,93.9
2017-07-15T01:16:24.981Z,93.9
2017-07-15T01:17:32.757Z,94.6
2017-07-15T01:18:40.238Z,94.5
2017-07-15T01:19:47.713Z,94.3
2017-07-15T01:20:55.188Z,94.6
2017-07-15T01:22:02.667Z,94.5
2017-07-15T01:23:10.442Z,94.4
2017-07-15T01:24:17.921Z,94
2017-07-15T01:25:25.406Z,94.6
2017-07-15T01:26:32.544Z,93.9
2017-07-15T01:27:40.021Z,94.3
2017-07-15T01:28:47.847Z,93.8
2017-07-15T01:29:55.316Z,94.1
2017-07-15T01:31:02.797Z,94.4
2017-07-15T01:32:10.275Z,94.3
2017-07-15T01:34:40.147Z,94.1
2017-07-15T01:35:47.625Z,94
2017-07-15T01:36:55.110Z,93.6
2017-07-15T01:38:02.588Z,93.6
2017-07-15T01:39:10.067Z,94.1
2017-07-15T01:40:17.892Z,93.9
2017-07-15T01:41:25.369Z,93.6
2017-07-15T01:42:32.846Z,93.7
2017-07-15T01:43:40.330Z,94.1
2017-07-15T01:44:47.811Z,93.5
2017-07-15T01:45:55.591Z,93.5
2017-07-15T01:47:03.065Z,93.8
2017-07-15T01:48:10.538Z,93.7
2017-07-15T01:49:18.013Z,94.1
2017-07-15T01:50:25.158Z,93.7
2017-07-15T01:51:32.933Z,93.6
2017-07-15T01:52:40.409Z,93.3
2017-07-15T01:53:47.884Z,93.1
2017-07-15T01:54:55.369Z,93.3
2017-07-15T01:56:02.848Z,94.1
2017-07-15T01:57:10.654Z,93.3
2017-07-15T01:58:17.821Z,93.8
2017-07-15T01:59:24.957Z,93.3
2017-07-15T02:00:32.425Z,93.8
2017-07-15T02:01:39.909Z,93.5
2017-07-15T02:02:47.687Z,93.7
2017-07-15T02:05:16.878Z,93.2
2017-07-15T02:06:24.350Z,93.1
2017-07-15T02:07:31.828Z,93.4
2017-07-15T02:08:39.596Z,94
2017-07-15T02:09:47.068Z,93.9
2017-07-15T02:10:54.547Z,93.6
2017-07-15T02:12:01.689Z,93.6
2017-07-15T02:13:09.160Z,94
2017-07-15T02:14:16.937Z,93.8
2017-07-15T02:15:24.419Z,93.7
2017-07-15T02:16:31.895Z,93.6
2017-07-15T02:17:39.363Z,93.4
2017-07-15T02:18:46.842Z,93.4
2017-07-15T02:19:54.619Z,93.3
2017-07-15T02:21:02.115Z,93.9
2017-07-15T02:22:09.587Z,93.9
2017-07-15T02:23:17.065Z,93.4
2017-07-15T02:24:24.541Z,93.3
2017-07-15T02:25:32.312Z,93.4
2017-07-15T02:26:39.787Z,93.1
2017-07-15T02:27:46.934Z,93.8
2017-07-15T02:28:54.414Z,93.8
2017-07-15T02:30:01.896Z,93.8
2017-07-15T02:31:09.672Z,93.9
2017-07-15T02:32:17.148Z,93.5
2017-07-15T02:33:24.626Z,93.6
2017-07-15T02:34:32.097Z,94.1
2017-07-15T02:35:39.576Z,94.2
2017-07-15T02:36:47.355Z,94.7
2017-07-15T02:37:54.497Z,94.5
2017-07-15T02:39:01.646Z,93.9
2017-07-15T02:40:09.121Z,94
2017-07-15T02:41:16.265Z,93.9
2017-07-15T02:42:24.041Z,93.7
2017-07-15T02:43:31.189Z,93.4
2017-07-15T02:44:38.664Z,93.6
2017-07-15T02:45:46.137Z,93.8
2017-07-15T02:46:53.615Z,93.4
2017-07-15T02:48:01.436Z,93.6
2017-07-15T02:49:08.918Z,93.9
2017-07-15T02:50:16.395Z,94.2
2017-07-15T02:51:23.871Z,94.4
2017-07-15T02:52:31.342Z,95.2
2017-07-15T02:53:39.117Z,95.1
2017-07-15T02:54:46.593Z,94.9
2017-07-15T02:55:54.073Z,94.7
2017-07-15T02:57:01.550Z,94
2017-07-15T02:58:09.047Z,94
2017-07-15T02:59:16.822Z,95
2017-07-15T03:00:24.297Z,94.7
2017-07-15T03:01:31.769Z,94.7
2017-07-15T03:02:38.582Z,94.5
2017-07-15T03:03:46.062Z,94.4
2017-07-15T03:04:53.833Z,94.1
2017-07-15T03:06:01.305Z,94.7
2017-07-15T03:07:08.779Z,94.7
2017-07-15T03:08:16.251Z,93.8
2017-07-15T03:09:23.724Z,94.3
2017-07-15T03:10:31.503Z,94.3
2017-07-15T03:11:38.973Z,93.8
2017-07-15T03:12:46.452Z,94
2017-07-15T03:13:53.933Z,93.4
2017-07-15T03:15:01.410Z,93.8
2017-07-15T03:16:08.862Z,93.8
2017-07-15T03:17:16.341Z,93.8
2017-07-15T03:18:23.147Z,92.4
2017-07-15T03:19:29.952Z,92.8
2017-07-15T03:20:37.431Z,93.8
2017-07-15T03:21:45.204Z,92.9
2017-07-15T03:22:52.684Z,93.3
2017-07-15T03:24:00.162Z,93.4
2017-07-15T03:25:07.642Z,92.4
2017-07-15T03:26:15.114Z,93.8
2017-07-15T03:27:22.889Z,93.7
2017-07-15T03:28:30.373Z,93
2017-07-15T03:29:37.848Z,93.7
2017-07-15T03:30:45.322Z,93.2
2017-07-15T03:31:52.469Z,93.7
2017-07-15T03:32:59.908Z,93.2
2017-07-15T03:34:07.378Z,93.7
2017-07-15T03:35:14.857Z,93.8
2017-07-15T03:36:22.002Z,93.5
2017-07-15T03:37:29.478Z,93.7
2017-07-15T03:38:37.270Z,93.7
2017-07-15T03:39:44.748Z,93.6
2017-07-15T03:40:51.890Z,93.6
2017-07-15T03:41:59.360Z,93.6
2017-07-15T03:43:06.857Z,93.7
2017-07-15T03:44:14.330Z,93.8
2017-07-15T03:45:21.467Z,94
2017-07-15T03:46:28.609Z,94.3
2017-07-15T03:47:36.086Z,93.7
2017-07-15T03:48:43.237Z,93.6
2017-07-15T03:49:51.012Z,94.1
2017-07-15T03:50:57.827Z,93.6
2017-07-15T03:52:05.342Z,93.7
2017-07-15T03:53:12.819Z,93.6
2017-07-15T03:54:19.971Z,93.9
2017-07-15T03:55:27.746Z,93.6
2017-07-15T03:56:35.219Z,93.8
2017-07-15T03:57:42.699Z,93.9
2017-07-15T03:58:50.169Z,94.2
2017-07-15T03:59:57.647Z,94.2
2017-07-15T04:01:05.150Z,93.2
2017-07-15T04:02:12.628Z,94.5
2017-07-15T04:03:20.101Z,93.6
2017-07-15T04:04:27.571Z,93.5
2017-07-15T04:05:35.048Z,94.1
2017-07-15T04:06:42.497Z,93.7
2017-07-15T04:07:49.980Z,94.2
2017-07-15T04:08:57.457Z,94.5
2017-07-15T04:10:04.935Z,94.1
2017-07-15T04:11:12.407Z,94.4
2017-07-15T04:12:20.239Z,95.4
2017-07-15T04:13:27.712Z,95.1
2017-07-15T04:14:35.183Z,95.7
2017-07-15T04:15:42.659Z,95.8
2017-07-15T04:16:50.138Z,96
2017-07-15T04:17:57.912Z,96.2
2017-07-15T04:19:05.389Z,96.2
2017-07-15T04:20:12.866Z,96.2
2017-07-15T04:21:20.340Z,95.7
2017-07-15T04:22:27.479Z,95.5
2017-07-15T04:23:35.330Z,95
2017-07-15T04:24:42.835Z,95
2017-07-15T04:25:50.320Z,94.9
2017-07-15T04:26:57.796Z,94.8
2017-07-15T04:28:05.265Z,94.9
2017-07-15T04:29:13.043Z,94.9
2017-07-15T04:30:20.521Z,94.2
2017-07-15T04:31:28.001Z,95
2017-07-15T04:32:35.481Z,95.3
2017-07-15T04:33:42.629Z,95.3
2017-07-15T04:34:50.402Z,95.3
2017-07-15T04:35:57.870Z,95.8
2017-07-15T04:37:05.014Z,95.8
2017-07-15T04:38:12.490Z,95.6
2017-07-15T04:39:19.967Z,95.8
2017-07-15T04:40:27.796Z,96.1
2017-07-15T04:41:35.271Z,95.3
2017-07-15T04:42:42.752Z,95.5
2017-07-15T04:43:50.228Z,95.9
2017-07-15T04:44:57.699Z,95.3
2017-07-15T04:46:05.529Z,96
2017-07-15T04:47:13.006Z,95.8
2017-07-15T04:48:20.482Z,95.4
2017-07-15T04:49:27.952Z,95.5
2017-07-15T04:50:35.428Z,95.5
2017-07-15T04:51:43.255Z,95.6
2017-07-15T04:52:50.738Z,95.5
2017-07-15T04:53:58.217Z,96
2017-07-15T04:55:05.723Z,95.4
2017-07-15T04:56:13.199Z,95.3
2017-07-15T04:57:21.023Z,95.6
2017-07-15T04:58:28.506Z,94
2017-07-15T04:59:35.983Z,95.2
2017-07-15T05:00:43.458Z,95.5
2017-07-15T05:01:50.940Z,95.2
2017-07-15T05:02:58.720Z,95.3
2017-07-15T05:04:06.208Z,95.7
2017-07-15T05:05:13.688Z,95.5
2017-07-15T05:06:21.170Z,95.3
2017-07-15T05:07:28.641Z,95.3
2017-07-15T05:08:36.079Z,94.4
2017-07-15T05:09:43.554Z,94.2
2017-07-15T05:10:51.021Z,93.9
2017-07-15T05:11:58.493Z,94.2
2017-07-15T05:13:05.968Z,94.2
2017-07-15T05:14:13.741Z,94.2
2017-07-15T05:15:21.211Z,94.1
2017-07-15T05:16:28.365Z,94.3
2017-07-15T05:17:35.831Z,94.6
2017-07-15T05:18:42.642Z,93.8
2017-07-15T05:19:49.450Z,94.3
2017-07-15T05:20:56.593Z,93.6
2017-07-15T05:22:04.085Z,93.3
2017-07-15T05:23:11.861Z,93.8
2017-07-15T05:24:19.005Z,93.7
2017-07-15T05:25:26.147Z,93.5
2017-07-15T05:26:33.284Z,93.6
2017-07-15T05:27:40.422Z,93.6
2017-07-15T05:28:47.872Z,93.5
2017-07-15T05:31:17.679Z,93.4
2017-07-15T05:32:25.149Z,93.6
2017-07-15T05:33:32.634Z,93.3
2017-07-15T05:34:40.404Z,93.1
2017-07-15T05:35:47.550Z,93.4
2017-07-15T05:36:55.022Z,92.9
2017-07-15T05:38:02.488Z,92
2017-07-15T05:39:09.961Z,91.1
2017-07-15T05:40:17.731Z,92.1
2017-07-15T05:41:25.201Z,92.3
2017-07-15T05:42:32.673Z,92
2017-07-15T05:43:40.146Z,91.9
2017-07-15T05:44:47.288Z,92
2017-07-15T05:45:54.730Z,91.4
2017-07-15T05:47:01.867Z,91.2
2017-07-15T05:48:09.338Z,90.7
2017-07-15T05:49:16.482Z,91.1
2017-07-15T05:50:23.963Z,91.1
2017-07-15T12:03:45.442Z,66.9
2017-07-15T12:04:52.923Z,66.9
2017-07-15T12:06:00.085Z,64.1
2017-07-15T12:07:07.572Z,65
2017-07-15T12:08:15.048Z,65.1
2017-07-15T12:09:22.505Z,65.9
2017-07-15T12:10:29.982Z,65
2017-07-15T12:11:37.484Z,65.3
2017-07-15T12:12:44.981Z,66.1
2017-07-15T12:13:52.463Z,66.6
2017-07-15T12:14:59.947Z,65.3
2017-07-15T12:16:07.429Z,65.3
2017-07-15T12:17:14.920Z,66.2
2017-07-15T12:18:22.408Z,66.1
2017-07-15T12:19:29.545Z,65.6
2017-07-15T12:20:37.023Z,66.3
2017-07-15T12:21:44.504Z,66.7
2017-07-15T12:22:51.992Z,66
2017-07-15T12:23:59.140Z,65.9
2017-07-15T12:25:06.977Z,67.2
2017-07-15T12:26:14.462Z,69.2
2017-07-15T12:27:21.940Z,66.1
2017-07-15T12:28:29.415Z,66.4
2017-07-15T12:29:36.890Z,65.9
2017-07-15T12:30:44.728Z,66.3
2017-07-15T12:31:51.551Z,66.3
2017-07-15T12:32:59.036Z,66.6
2017-07-15T12:34:06.545Z,67.9
2017-07-15T12:35:14.035Z,67.7
2017-07-15T12:36:21.867Z,67.2
2017-07-15T12:37:29.022Z,66.9
2017-07-15T12:38:36.500Z,66.7
2017-07-15T12:39:43.979Z,67.2
2017-07-15T12:40:50.804Z,67.9
2017-07-15T12:41:58.000Z,68.6
2017-07-15T12:43:05.152Z,68.1
2017-07-15T12:44:12.641Z,65.9
2017-07-15T12:45:19.789Z,66.6
2017-07-15T12:46:26.604Z,67.2
2017-07-15T12:47:34.437Z,67.1
2017-07-15T12:48:41.932Z,67
2017-07-15T12:49:49.401Z,67.3
2017-07-15T12:50:56.545Z,66.4
2017-07-15T12:52:03.711Z,67.6
2017-07-15T12:53:10.852Z,66.7
2017-07-15T12:54:18.292Z,67.9
2017-07-15T12:55:25.447Z,67.5
2017-07-15T12:56:32.595Z,66.8
2017-07-15T12:57:40.069Z,66.2
2017-07-15T12:58:47.224Z,67.2
2017-07-15T12:59:55.088Z,66.6
2017-07-15T13:01:02.567Z,66.5
2017-07-15T13:02:10.054Z,67.2
2017-07-15T13:03:17.538Z,66.8
2017-07-15T13:04:25.021Z,65.7
2017-07-15T13:05:32.495Z,65.9
2017-07-15T13:06:40.274Z,66.1
2017-07-15T13:07:47.752Z,66.5
2017-07-15T13:08:55.235Z,67.8
2017-07-15T13:10:02.712Z,66.8
2017-07-15T13:11:09.853Z,68.3
2017-07-15T13:12:17.638Z,68.1
2017-07-15T13:13:25.131Z,65.5
2017-07-15T13:14:32.609Z,65.8
2017-07-15T13:15:40.109Z,66.3
2017-07-15T13:16:47.592Z,66.4
2017-07-15T13:17:55.036Z,64.2
2017-07-15T13:19:02.542Z,63.7
2017-07-15T13:20:10.023Z,60.3
2017-07-15T13:21:17.501Z,61.8
2017-07-15T13:22:24.979Z,62.9
2017-07-15T13:23:32.812Z,61.3
2017-07-15T13:24:40.298Z,61.7
2017-07-15T13:25:47.780Z,63.5
2017-07-15T13:26:55.255Z,63.7
2017-07-15T13:28:02.734Z,63.8
2017-07-15T13:29:10.230Z,62.4
2017-07-15T13:30:17.705Z,62.9
2017-07-15T13:31:25.180Z,64.2
2017-07-15T13:32:32.653Z,65.1
2017-07-15T13:33:40.135Z,61.6
2017-07-15T13:34:47.914Z,63.3
2017-07-15T13:35:55.398Z,62.5
2017-07-15T13:37:02.874Z,63
2017-07-15T13:38:10.353Z,63.3
2017-07-15T13:39:17.503Z,62.9
2017-07-15T13:40:25.331Z,63.7
2017-07-15T13:41:32.805Z,63.9
2017-07-15T13:42:40.284Z,62.5
2017-07-15T13:43:47.761Z,61.4
2017-07-15T13:44:55.242Z,61.9
2017-07-15T13:46:02.735Z,62.4
2017-07-15T13:47:09.886Z,63.1
2017-07-15T13:48:17.373Z,64
2017-07-15T13:49:24.854Z,64
2017-07-15T13:50:32.329Z,65.5
2017-07-15T13:51:40.109Z,64.2
2017-07-15T13:52:47.586Z,63.6
2017-07-15T13:53:55.066Z,66.2
2017-07-15T13:55:02.548Z,64.8
2017-07-15T13:56:10.038Z,66.1
2017-07-15T13:57:17.862Z,66.6
2017-07-15T13:58:25.345Z,66.5
2017-07-15T13:59:32.822Z,66.2
2017-07-15T14:00:40.308Z,67.9
2017-07-15T14:01:47.784Z,67.8
2017-07-15T14:02:55.563Z,68.9
2017-07-15T14:04:03.043Z,69.9
2017-07-15T14:05:10.181Z,70.5
2017-07-15T14:06:17.677Z,69.4
2017-07-15T14:07:24.829Z,72.1
2017-07-15T14:08:32.663Z,70.1
2017-07-15T14:09:40.145Z,72.9
2017-07-15T14:10:47.638Z,73.9
2017-07-15T14:11:55.117Z,74
2017-07-15T14:13:02.589Z,75
2017-07-15T14:14:10.418Z,74.3
2017-07-15T14:15:17.904Z,74.9
2017-07-15T14:16:25.379Z,74.6
2017-07-15T14:17:32.540Z,75.6
2017-07-15T14:18:40.024Z,75.6
2017-07-15T14:19:47.808Z,76.4
2017-07-15T14:20:55.288Z,75.3
2017-07-15T14:22:02.429Z,75.6
2017-07-15T14:23:09.569Z,77.2
2017-07-15T14:24:17.053Z,75.4
2017-07-15T14:25:24.200Z,76.6
2017-07-15T14:26:31.353Z,75.5
2017-07-15T14:27:38.832Z,76.4
2017-07-15T14:28:46.612Z,76
2017-07-15T14:29:53.767Z,76.3
2017-07-15T14:31:01.246Z,74.9
2017-07-15T14:32:08.391Z,74.9
2017-07-15T14:33:15.546Z,76.5
2017-07-15T14:34:23.322Z,74.9
2017-07-15T14:35:30.798Z,74.9
2017-07-15T14:36:38.269Z,75.4
2017-07-15T14:37:45.416Z,74.9
2017-07-15T14:38:52.237Z,74
2017-07-15T14:39:59.384Z,75
2017-07-15T14:41:06.868Z,74.9
2017-07-15T14:42:14.364Z,76.6
2017-07-15T14:43:21.843Z,73.6
2017-07-15T14:44:29.320Z,74
2017-07-15T14:45:37.097Z,74
2017-07-15T14:46:44.584Z,75
2017-07-15T14:47:52.063Z,75.1
2017-07-15T14:48:59.543Z,73.7
2017-07-15T14:50:07.050Z,75.3
2017-07-15T14:51:14.825Z,75.2
2017-07-15T14:52:22.304Z,73.8
2017-07-15T14:53:29.786Z,73.4
2017-07-15T14:54:37.292Z,76.3
2017-07-15T14:55:44.777Z,73
2017-07-15T14:56:52.556Z,71.8
2017-07-15T14:57:59.703Z,70.6
2017-07-15T14:59:06.847Z,71.7
2017-07-15T15:00:14.332Z,72.1
2017-07-15T15:01:21.820Z,73.4
2017-07-15T15:02:29.305Z,73.9
2017-07-15T15:03:36.461Z,71.8
2017-07-15T15:04:43.939Z,72.7
2017-07-15T15:05:51.418Z,72.1
2017-07-15T15:06:58.897Z,71.7
2017-07-15T15:08:06.673Z,71.2
2017-07-15T15:09:14.150Z,71.9
2017-07-15T15:10:21.626Z,71.9
2017-07-15T15:11:29.108Z,71.6
2017-07-15T15:12:36.250Z,71.3
2017-07-15T15:13:44.040Z,71.8
2017-07-15T15:14:51.514Z,72.5
2017-07-15T15:15:58.663Z,72.3
2017-07-15T15:17:05.815Z,70.9
2017-07-15T15:18:13.295Z,71.2
2017-07-15T15:19:21.119Z,70.7
2017-07-15T15:20:28.267Z,71.1
2017-07-15T15:21:35.745Z,71.2
2017-07-15T15:22:42.886Z,71.6
2017-07-15T15:23:50.377Z,71.4
2017-07-15T15:24:58.199Z,71.8
2017-07-15T15:26:05.684Z,72.6
2017-07-15T15:27:13.165Z,71.2
2017-07-15T15:28:20.353Z,71.5
2017-07-15T15:29:27.831Z,70.9
2017-07-15T15:30:35.660Z,70.6
2017-07-15T15:31:43.147Z,70.7
2017-07-15T15:32:50.848Z,68.9
2017-07-15T15:33:58.339Z,70
2017-07-15T15:35:05.828Z,69.5
2017-07-15T15:36:13.670Z,69.1
2017-07-15T15:37:21.174Z,68.8
2017-07-15T15:38:28.651Z,69.2
2017-07-15T15:39:36.132Z,68.8
2017-07-15T15:40:43.615Z,68.2
2017-07-15T15:41:51.115Z,67.7
2017-07-15T15:42:58.597Z,67.7
2017-07-15T15:44:06.075Z,66.3
2017-07-15T15:45:13.554Z,67
2017-07-15T15:46:21.255Z,67.9
2017-07-15T15:47:29.086Z,67.3
2017-07-15T15:48:36.561Z,67.4
2017-07-15T15:49:44.038Z,67.2
2017-07-15T15:50:51.513Z,68.5
2017-07-15T15:51:58.988Z,66.8
2017-07-15T15:53:06.468Z,66.3
2017-07-15T15:54:14.244Z,67.4
2017-07-15T15:55:21.726Z,67.8
2017-07-15T15:56:29.213Z,66.6
2017-07-15T15:57:36.691Z,67.4
2017-07-15T15:58:44.216Z,67.2
2017-07-15T15:59:51.982Z,67.7
2017-07-15T16:00:58.799Z,68.2
2017-07-15T16:02:06.338Z,68.3
2017-07-15T16:03:13.811Z,67.5
2017-07-15T16:04:20.962Z,67.6
2017-07-15T16:05:28.742Z,67.8
2017-07-15T16:06:36.235Z,68.3
2017-07-15T16:07:43.715Z,67.2
2017-07-15T16:08:51.224Z,68.3
2017-07-15T16:09:58.384Z,68.4
2017-07-15T16:11:06.164Z,69.2
2017-07-15T16:12:13.667Z,68.6
2017-07-15T16:13:21.145Z,68.4
2017-07-15T16:14:28.630Z,69.1
2017-07-15T16:15:35.779Z,68.4
2017-07-15T16:16:43.222Z,69.8
2017-07-15T16:17:50.396Z,68.8
2017-07-15T16:18:57.881Z,68.3
2017-07-15T16:20:05.355Z,68.3
2017-07-15T16:21:12.858Z,68.3
2017-07-15T16:22:20.640Z,68.1
2017-07-15T16:23:28.120Z,68.3
2017-07-15T16:24:35.602Z,69.1
2017-07-15T16:25:43.089Z,69.6
2017-07-15T16:26:50.566Z,70.2
2017-07-15T16:27:58.396Z,70.6
2017-07-15T16:29:05.879Z,70
2017-07-15T16:30:13.026Z,69.3
2017-07-15T16:31:20.507Z,69.7
2017-07-15T16:32:27.990Z,69.9
2017-07-15T16:33:35.772Z,70.4
2017-07-15T16:34:43.250Z,70.2
2017-07-15T16:35:50.731Z,70.3
2017-07-15T16:36:58.207Z,70.9
2017-07-15T16:38:05.708Z,70.2
2017-07-15T16:39:13.530Z,70
2017-07-15T16:40:20.681Z,71
2017-07-15T16:41:28.162Z,71.2
2017-07-15T16:42:35.642Z,71
2017-07-15T16:43:43.123Z,70.6
2017-07-15T16:44:50.947Z,70.7
2017-07-15T16:45:58.424Z,71.1
2017-07-15T16:47:05.906Z,71.4
2017-07-15T16:48:13.380Z,70.4
2017-07-15T16:49:20.874Z,70.1
2017-07-15T16:50:28.657Z,70.7
2017-07-15T16:51:36.132Z,71.2
2017-07-15T16:52:43.609Z,71.5
2017-07-15T16:53:51.103Z,71.3
2017-07-15T16:54:58.581Z,71.8
2017-07-15T16:56:06.061Z,72.8
2017-07-15T16:57:13.543Z,71.6
2017-07-15T16:58:21.326Z,70.8
2017-07-15T16:59:28.804Z,70.6
2017-07-15T17:00:36.293Z,70.2
2017-07-15T17:01:43.779Z,71.3
2017-07-15T17:02:51.250Z,71.3
2017-07-15T17:03:59.033Z,71.3
2017-07-15T17:05:06.509Z,70.7
2017-07-15T17:06:13.985Z,70.2
2017-07-15T17:07:21.129Z,70.5
2017-07-15T17:08:28.612Z,70.5
2017-07-15T17:09:36.391Z,70.3
2017-07-15T17:10:43.882Z,70.6
2017-07-15T17:11:52.772Z,71.8
2017-07-15T17:13:00.250Z,70.5
2017-07-15T17:14:07.736Z,70.8
2017-07-15T17:15:15.213Z,70.7
2017-07-15T17:16:22.688Z,70.8
2017-07-15T17:17:30.171Z,71.3
2017-07-15T17:18:37.324Z,71.8
2017-07-15T17:19:44.806Z,71.7
2017-07-15T17:20:52.602Z,71.3
2017-07-15T17:22:00.077Z,71
2017-07-15T17:23:07.556Z,71.7
2017-07-15T17:24:15.037Z,71.6
2017-07-15T17:25:22.518Z,72.2
2017-07-15T17:26:29.965Z,70.5
2017-07-15T17:27:37.112Z,70.9
2017-07-15T17:28:44.596Z,72
2017-07-15T17:29:52.070Z,71.3
2017-07-15T17:30:59.216Z,71.6
2017-07-15T17:32:06.992Z,71
2017-07-15T17:33:14.485Z,72
2017-07-15T17:34:21.966Z,72.7
2017-07-15T17:35:29.106Z,70.1
2017-07-15T17:36:36.587Z,71.3
2017-07-15T17:37:44.071Z,70.6
2017-07-15T17:38:51.550Z,71.6
2017-07-15T17:39:58.719Z,71.2
2017-07-15T17:41:06.203Z,72.4
2017-07-15T17:42:13.686Z,72
2017-07-15T17:43:21.471Z,71.2
2017-07-15T17:44:28.946Z,71.4
2017-07-15T17:45:36.439Z,71.5
2017-07-15T17:46:43.923Z,71.8
2017-07-15T17:47:51.403Z,71.3
2017-07-15T17:48:59.192Z,70.7
2017-07-15T17:50:06.667Z,71.3
2017-07-15T17:51:14.164Z,71.4
2017-07-15T17:52:21.644Z,71.2
2017-07-15T17:53:29.124Z,72.1
2017-07-15T17:54:36.269Z,71.4
2017-07-15T17:55:43.781Z,71.2
2017-07-15T17:56:51.273Z,71.6
2017-07-15T17:57:58.753Z,71.2
2017-07-15T17:59:06.230Z,71.3
2017-07-15T18:00:14.008Z,71.6
2017-07-15T18:01:21.484Z,72.2
2017-07-15T18:02:28.967Z,72.3
2017-07-15T18:03:36.442Z,72.2
2017-07-15T18:04:43.921Z,72.7
2017-07-15T18:05:51.703Z,71.9
2017-07-15T18:06:59.177Z,73.6
2017-07-15T18:08:06.655Z,73.6
2017-07-15T18:09:14.137Z,73
2017-07-15T18:10:21.619Z,73.6
2017-07-15T18:11:29.389Z,74.8
2017-07-15T18:12:36.867Z,75.7
2017-07-15T18:13:44.359Z,74.2
2017-07-15T18:14:51.835Z,74.3
2017-07-15T18:15:59.322Z,75.5
2017-07-15T18:17:06.808Z,76.8
2017-07-15T18:18:14.288Z,79
2017-07-15T18:19:21.765Z,79.7
2017-07-15T18:20:29.245Z,80
2017-07-15T18:21:36.389Z,79.8
2017-07-15T18:22:44.170Z,78.9
2017-07-15T18:23:51.652Z,79.7
2017-07-15T18:24:59.130Z,79.3
2017-07-15T18:26:06.615Z,79.5
2017-07-15T18:27:14.145Z,79.6
2017-07-15T18:28:21.921Z,79.9
2017-07-15T18:29:29.067Z,80.2
2017-07-15T18:30:36.543Z,81.3
2017-07-15T18:31:44.034Z,81.3
2017-07-15T18:32:51.519Z,81.7
2017-07-15T18:33:58.997Z,82
2017-07-15T18:35:06.147Z,82.1
2017-07-15T18:36:13.641Z,82.2
2017-07-15T18:37:21.115Z,81.6
2017-07-15T18:38:28.262Z,80.7
2017-07-15T18:39:35.709Z,80.6
2017-07-15T18:40:43.193Z,80.7
2017-07-15T18:41:50.670Z,80.9
2017-07-15T18:42:58.150Z,80.6
2017-07-15T18:44:05.627Z,80.6
2017-07-15T18:45:13.393Z,81.5
2017-07-15T18:46:20.893Z,81.3
2017-07-15T18:47:28.379Z,81.5
2017-07-15T18:48:35.850Z,81.1
2017-07-15T18:49:42.991Z,80.4
2017-07-15T18:50:50.797Z,81
2017-07-15T18:51:58.262Z,80.7
2017-07-15T18:53:05.744Z,81.4
2017-07-15T18:54:13.225Z,81.6
2017-07-15T18:55:20.703Z,81.3
2017-07-15T18:56:28.209Z,81
2017-07-15T18:57:35.691Z,81.1
2017-07-15T18:58:42.836Z,81.8
2017-07-15T18:59:50.311Z,82.5
2017-07-15T19:00:57.815Z,81.9
2017-07-15T19:02:05.599Z,82.5
2017-07-15T19:03:13.079Z,83
2017-07-15T19:04:20.554Z,83.1
2017-07-15T19:05:27.707Z,84
2017-07-15T19:06:35.209Z,83.9
2017-07-15T19:07:42.676Z,84.4
2017-07-15T19:08:50.178Z,84.3
2017-07-15T19:09:57.653Z,85
2017-07-15T19:11:05.133Z,85.3
2017-07-15T19:12:12.641Z,85.4
2017-07-15T19:13:20.416Z,85.6
2017-07-15T19:14:27.895Z,85.8
2017-07-15T19:15:35.378Z,85.9
2017-07-15T19:16:42.859Z,85.6
2017-07-15T19:17:50.337Z,86.1
2017-07-15T19:18:58.110Z,86
2017-07-15T19:20:05.587Z,85.9
2017-07-15T19:21:12.732Z,86
2017-07-15T19:22:20.210Z,86.1
2017-07-15T19:23:27.682Z,86
2017-07-15T19:24:35.466Z,86.6
2017-07-15T19:25:42.941Z,87
2017-07-15T19:26:49.749Z,86.7
2017-07-15T19:27:57.232Z,87.3
2017-07-15T19:29:04.400Z,88.1
2017-07-15T19:30:12.181Z,86.5
2017-07-15T19:31:19.657Z,87
2017-07-15T19:32:27.138Z,87.1
2017-07-15T19:33:34.619Z,87
2017-07-15T19:34:42.092Z,85.8
2017-07-15T19:35:49.569Z,87.2
2017-07-15T19:36:57.054Z,87
2017-07-15T19:38:04.542Z,87.1
2017-07-15T19:39:12.024Z,87.7
2017-07-15T19:40:19.195Z,87.4
2017-07-15T19:41:26.641Z,87.9
2017-07-15T19:42:34.114Z,88.2
2017-07-15T19:43:41.608Z,88.7
2017-07-15T19:44:49.090Z,89.2
2017-07-15T19:45:56.575Z,89.1
2017-07-15T19:47:04.347Z,89.6
2017-07-15T19:48:11.824Z,89.7
2017-07-15T19:49:19.308Z,90
2017-07-15T19:50:26.779Z,90.2
2017-07-15T19:51:34.283Z,90.2
2017-07-15T19:52:42.058Z,89.9
2017-07-15T19:53:49.537Z,90.1
2017-07-15T19:54:56.679Z,89.9
2017-07-15T19:56:04.155Z,90.1
2017-07-15T19:57:11.636Z,90
2017-07-15T19:58:18.787Z,90.1
2017-07-15T19:59:26.266Z,90.3
2017-07-15T20:00:33.743Z,90.2
2017-07-15T20:01:41.223Z,90.4
2017-07-15T20:02:49.014Z,90.4
2017-07-15T20:03:56.156Z,90.6
2017-07-15T20:05:03.635Z,90.4
2017-07-15T20:06:10.781Z,90.2
2017-07-15T20:07:18.255Z,90.7
2017-07-15T20:08:26.032Z,90.6
2017-07-15T20:09:33.510Z,90.8
2017-07-15T20:10:40.985Z,90.8
2017-07-15T20:11:48.461Z,90.7
2017-07-15T20:12:55.940Z,90.7
2017-07-15T20:14:03.746Z,89.8
2017-07-15T20:15:11.223Z,90.3
2017-07-15T20:16:18.701Z,90.3
2017-07-15T20:17:25.850Z,90.4
2017-07-15T20:18:33.323Z,90
2017-07-15T20:19:41.100Z,90.6
2017-07-15T20:20:48.579Z,90.6
2017-07-15T20:21:56.057Z,90.7
2017-07-15T20:23:03.531Z,90.3
2017-07-15T20:24:11.011Z,90.3
2017-07-15T20:25:18.490Z,90.5
2017-07-15T20:26:25.965Z,90.7
2017-07-15T20:27:33.438Z,90.6
2017-07-15T20:28:40.913Z,90.8
2017-07-15T20:29:48.406Z,90.9
2017-07-15T20:30:56.219Z,90.8
2017-07-15T20:32:03.696Z,91.2
2017-07-15T20:33:10.832Z,91.3
2017-07-15T20:34:18.308Z,91.2
2017-07-15T20:35:26.094Z,91.6
2017-07-15T20:36:33.569Z,91.6
2017-07-15T20:37:41.052Z,91.7
2017-07-15T20:38:48.526Z,91.6
2017-07-15T20:39:56.007Z,91.5
2017-07-15T20:41:03.449Z,91.5
2017-07-15T20:42:10.590Z,91.6
2017-07-15T20:43:18.066Z,91.8
2017-07-15T20:44:25.546Z,91.5
2017-07-15T20:45:33.022Z,91.4
2017-07-15T20:46:40.790Z,91.6
2017-07-15T20:47:48.267Z,91.5
2017-07-15T20:48:55.748Z,91.6
2017-07-15T20:50:02.892Z,91.9
2017-07-15T20:51:10.375Z,91.3
2017-07-15T20:52:17.854Z,91.6
2017-07-15T20:53:25.325Z,91.3
2017-07-15T20:54:32.796Z,91.1
2017-07-15T20:55:40.275Z,90.8
2017-07-15T20:56:47.750Z,90.7
2017-07-15T20:57:55.525Z,91
2017-07-15T20:59:02.672Z,91.2
2017-07-15T21:00:10.151Z,91.1
2017-07-15T21:01:17.623Z,90.9
2017-07-15T21:02:25.099Z,90.5
2017-07-15T21:03:32.876Z,91.2
2017-07-15T21:04:40.348Z,91.1
2017-07-15T21:05:47.490Z,91
2017-07-15T21:06:54.650Z,91.4
2017-07-15T21:08:02.132Z,90.7
2017-07-15T21:09:09.574Z,91.4
2017-07-15T21:10:16.721Z,91.6
2017-07-15T21:11:24.202Z,91.6
2017-07-15T21:12:31.682Z,90.6
2017-07-15T21:13:38.823Z,91.3
2017-07-15T21:14:45.964Z,91.8
2017-07-15T21:15:53.443Z,91.5
2017-07-15T21:17:00.586Z,92
2017-07-15T21:18:08.065Z,91.4
2017-07-15T21:19:15.205Z,91.8
2017-07-15T21:20:22.981Z,92